Time;durP1;ratioP1;P1;durP2;ratioP2;P2;SDS_P1;SDS_P2;PMS_P1;PMS_P2;Temp;Humidity;BMP_temperature;BMP_pressure;BME280_temperature;BME280_humidity;BME280_pressure;Samples;Min_cycle;Max_cycle;Signal;HPM_P1;HPM_P2
2023/08/14 00:00:09;;;;;;;;;;;19.00;82.00;;;;;;4987510;28;20012;-68
2023/08/14 00:02:42;;;;;;;;;;;19.00;82.20;;;;;;4990388;28;19930;-69
2023/08/14 00:05:09;;;;;;;;;;;19.00;82.20;;;;;;4990305;28;19984;-68
2023/08/14 00:07:36;;;;;;;;;;;19.00;82.40;;;;;;4992576;28;19926;-68
2023/08/14 00:10:04;;;;;;;;;;;19.00;82.40;;;;;;4987128;28;19926;-68
2023/08/14 00:12:31;;;;;;;;;;;19.00;82.30;;;;;;4987911;28;19926;-68
2023/08/14 00:14:59;;;;;;;;;;;19.00;82.30;;;;;;4989940;28;19988;-69
2023/08/14 00:17:26;;;;;;;;;;;19.00;82.30;;;;;;4990476;28;20068;-68
2023/08/14 00:19:55;;;;;;;;;;;19.00;82.40;;;;;;4986581;28;20004;-67
2023/08/14 00:22:22;;;;;;;;;;;18.90;82.50;;;;;;4974929;28;20055;-67
2023/08/14 00:24:49;;;;;;;;;;;18.90;82.40;;;;;;4986651;28;19936;-69
2023/08/14 00:27:21;;;;;;;;;;;18.90;82.60;;;;;;4989859;28;19934;-68
2023/08/14 00:29:48;;;;;;;;;;;18.90;82.40;;;;;;4991162;28;20047;-65
2023/08/14 00:32:15;;;;;;;;;;;18.90;82.40;;;;;;5002146;28;19929;-66
2023/08/14 00:34:43;;;;;;;;;;;18.80;82.50;;;;;;4989330;28;19930;-65
2023/08/14 00:37:12;;;;;;;;;;;18.80;82.60;;;;;;4990495;28;19930;-65
2023/08/14 00:39:39;;;;;;;;;;;18.80;82.60;;;;;;4991488;28;20500;-64
2023/08/14 00:42:06;;;;;;;;;;;18.80;82.60;;;;;;4989095;28;19929;-66
2023/08/14 00:44:33;;;;;;;;;;;18.80;82.70;;;;;;4990151;28;19926;-65
2023/08/14 00:47:01;;;;;;;;;;;18.80;82.80;;;;;;4989400;28;19937;-65
2023/08/14 00:49:28;;;;;;;;;;;18.80;82.90;;;;;;4989063;28;19926;-65
2023/08/14 00:51:56;;;;;;;;;;;18.70;83.20;;;;;;4989292;28;19941;-65
2023/08/14 00:54:25;;;;;;;;;;;18.80;83.20;;;;;;4989466;28;20020;-66
2023/08/14 00:56:52;;;;;;;;;;;18.80;83.20;;;;;;4989818;28;19944;-68
2023/08/14 00:59:20;;;;;;;;;;;18.80;83.30;;;;;;4986809;28;19926;-65
2023/08/14 01:01:47;;;;;;;;;;;18.80;83.30;;;;;;4987123;28;20000;-64
2023/08/14 01:04:14;;;;;;;;;;;18.80;83.40;;;;;;4988845;28;20020;-66
2023/08/14 01:06:42;;;;;;;;;;;18.70;83.50;;;;;;4990202;28;19934;-66
2023/08/14 01:09:09;;;;;;;;;;;18.80;83.40;;;;;;4990153;28;19930;-64
2023/08/14 01:11:44;;;;;;;;;;;18.80;83.30;;;;;;4989104;28;20384;-64
2023/08/14 01:14:15;;;;;;;;;;;18.70;83.30;;;;;;4989091;28;19934;-65
2023/08/14 01:16:45;;;;;;;;;;;18.80;83.30;;;;;;4984809;28;19930;-64
2023/08/14 01:19:20;;;;;;;;;;;18.80;83.30;;;;;;4988953;28;19949;-64
2023/08/14 01:21:51;;;;;;;;;;;18.70;83.30;;;;;;4989429;28;19925;-63
2023/08/14 01:24:23;;;;;;;;;;;18.80;83.10;;;;;;4988246;28;19929;-65
2023/08/14 01:26:52;;;;;;;;;;;18.80;83.00;;;;;;4988779;28;19933;-65
2023/08/14 01:29:19;;;;;;;;;;;18.80;83.00;;;;;;4987285;28;20308;-65
2023/08/14 01:31:46;;;;;;;;;;;18.70;83.10;;;;;;4986877;28;19930;-63
2023/08/14 01:34:13;;;;;;;;;;;18.70;83.10;;;;;;4988908;28;19925;-64
2023/08/14 01:36:45;;;;;;;;;;;18.70;83.10;;;;;;4989119;28;19934;-64
2023/08/14 01:39:16;;;;;;;;;;;18.70;83.00;;;;;;4990043;28;19989;-71
2023/08/14 01:41:46;;;;;;;;;;;18.70;83.10;;;;;;4988335;28;20025;-72
2023/08/14 01:44:15;;;;;;;;;;;18.70;83.00;;;;;;4988833;28;19968;-71
2023/08/14 01:46:45;;;;;;;;;;;18.60;83.20;;;;;;4988677;28;19933;-71
2023/08/14 01:49:15;;;;;;;;;;;18.60;83.30;;;;;;4986253;28;19961;-70
2023/08/14 01:51:42;;;;;;;;;;;18.60;83.30;;;;;;4989660;28;20024;-71
2023/08/14 01:54:10;;;;;;;;;;;18.60;83.30;;;;;;4988298;28;19929;-71
2023/08/14 01:56:37;;;;;;;;;;;18.60;83.40;;;;;;4987771;28;19925;-71
2023/08/14 01:59:04;;;;;;;;;;;18.60;83.30;;;;;;4983521;28;20404;-71
2023/08/14 02:01:33;;;;;;;;;;;18.60;83.40;;;;;;4986881;28;20301;-70
2023/08/14 02:04:01;;;;;;;;;;;18.60;83.40;;;;;;4988366;28;20312;-71
2023/08/14 02:06:31;;;;;;;;;;;18.60;83.50;;;;;;4988108;28;20409;-71
2023/08/14 02:08:58;;;;;;;;;;;18.60;83.50;;;;;;4989351;28;19988;-71
2023/08/14 02:11:25;;;;;;;;;;;18.60;83.60;;;;;;4986807;28;19926;-71
2023/08/14 02:13:52;;;;;;;;;;;18.60;83.60;;;;;;4986688;28;19930;-70
2023/08/14 02:16:20;;;;;;;;;;;18.60;83.70;;;;;;4985439;28;20008;-72
2023/08/14 02:18:48;;;;;;;;;;;18.60;83.70;;;;;;4984548;28;19933;-69
2023/08/14 02:21:16;;;;;;;;;;;18.60;83.80;;;;;;4988357;28;19976;-71
2023/08/14 02:23:43;;;;;;;;;;;18.60;83.60;;;;;;5002997;28;19929;-69
2023/08/14 02:26:10;;;;;;;;;;;18.60;83.50;;;;;;4987891;28;19964;-71
2023/08/14 02:28:37;;;;;;;;;;;18.60;83.50;;;;;;4988078;28;19934;-70
2023/08/14 02:31:05;;;;;;;;;;;18.60;83.50;;;;;;4987154;28;19929;-71
2023/08/14 02:33:32;;;;;;;;;;;18.60;83.50;;;;;;4989539;28;20308;-69
2023/08/14 02:36:01;;;;;;;;;;;18.50;83.70;;;;;;5000754;28;20313;-70
2023/08/14 02:38:30;;;;;;;;;;;18.50;83.90;;;;;;4975111;28;19934;-69
2023/08/14 02:40:57;;;;;;;;;;;18.50;84.00;;;;;;4963423;28;19985;-72
2023/08/14 02:43:25;;;;;;;;;;;18.50;84.20;;;;;;4965419;28;20020;-70
2023/08/14 02:45:53;;;;;;;;;;;18.40;84.20;;;;;;4967320;28;20021;-71
2023/08/14 02:48:20;;;;;;;;;;;18.40;84.30;;;;;;4976095;28;19926;-69
2023/08/14 02:50:47;;;;;;;;;;;18.40;84.30;;;;;;5001018;28;20016;-69
2023/08/14 02:53:16;;;;;;;;;;;18.40;84.10;;;;;;4986851;28;20008;-69
2023/08/14 02:55:43;;;;;;;;;;;18.40;84.10;;;;;;4985727;28;19934;-68
2023/08/14 02:58:10;;;;;;;;;;;18.40;84.00;;;;;;4988275;28;20320;-69
2023/08/14 03:00:38;;;;;;;;;;;18.50;83.90;;;;;;4988310;28;19948;-70
2023/08/14 03:03:05;;;;;;;;;;;18.40;83.90;;;;;;4979155;28;20578;-70
2023/08/14 03:05:34;;;;;;;;;;;18.40;83.80;;;;;;4983507;28;19926;-70
2023/08/14 03:08:03;;;;;;;;;;;18.40;83.80;;;;;;4982812;28;20028;-70
2023/08/14 03:10:45;;;;;;;;;;;18.40;83.70;;;;;;4981407;28;19934;-69
2023/08/14 03:13:21;;;;;;;;;;;18.40;83.80;;;;;;4967818;28;19934;-70
2023/08/14 03:15:48;;;;;;;;;;;18.30;84.00;;;;;;4987484;28;19926;-68
2023/08/14 03:18:15;;;;;;;;;;;18.30;84.00;;;;;;4994256;28;20682;-70
2023/08/14 03:20:43;;;;;;;;;;;18.30;84.20;;;;;;4987478;28;20012;-69
2023/08/14 03:23:10;;;;;;;;;;;18.30;84.40;;;;;;4987266;28;19990;-70
2023/08/14 03:25:40;;;;;;;;;;;18.30;84.50;;;;;;4987870;28;19930;-69
2023/08/14 03:28:09;;;;;;;;;;;18.30;84.40;;;;;;4986032;28;19925;-69
2023/08/14 03:30:43;;;;;;;;;;;18.30;84.20;;;;;;4968148;28;20382;-69
2023/08/14 03:33:10;;;;;;;;;;;18.40;84.00;;;;;;4988403;28;19937;-68
2023/08/14 03:35:45;;;;;;;;;;;18.40;84.00;;;;;;4970840;28;20393;-69
2023/08/14 03:38:23;;;;;;;;;;;18.30;83.90;;;;;;4973058;28;19956;-68
2023/08/14 03:40:53;;;;;;;;;;;18.30;84.00;;;;;;4990619;28;20009;-71
2023/08/14 03:43:21;;;;;;;;;;;18.30;84.10;;;;;;4979467;28;19962;-70
2023/08/14 03:45:49;;;;;;;;;;;18.20;84.10;;;;;;4973030;28;19929;-70
2023/08/14 03:48:17;;;;;;;;;;;18.20;84.20;;;;;;4989506;28;19933;-70
2023/08/14 03:50:46;;;;;;;;;;;18.20;84.30;;;;;;4990272;28;19953;-69
2023/08/14 03:53:14;;;;;;;;;;;18.20;84.50;;;;;;4978168;28;19977;-69
2023/08/14 03:55:41;;;;;;;;;;;18.20;84.40;;;;;;4977998;28;19933;-70
2023/08/14 03:58:09;;;;;;;;;;;18.10;84.50;;;;;;4973029;28;19957;-69
2023/08/14 04:00:37;;;;;;;;;;;18.10;84.70;;;;;;4978537;28;19926;-69
2023/08/14 04:03:05;;;;;;;;;;;18.10;84.80;;;;;;4989592;28;19949;-70
2023/08/14 04:05:36;;;;;;;;;;;18.20;85.00;;;;;;4970068;28;19932;-69
2023/08/14 04:08:04;;;;;;;;;;;18.20;85.00;;;;;;4989545;28;19940;-69
2023/08/14 04:10:38;;;;;;;;;;;18.20;84.90;;;;;;4990080;28;19934;-70
2023/08/14 04:13:09;;;;;;;;;;;18.20;84.90;;;;;;4978842;28;19936;-70
2023/08/14 04:15:38;;;;;;;;;;;18.20;84.80;;;;;;4984984;28;19934;-69
2023/08/14 04:18:06;;;;;;;;;;;18.30;84.80;;;;;;4986778;28;19930;-71
2023/08/14 04:20:34;;;;;;;;;;;18.30;84.70;;;;;;4983042;28;20360;-70
2023/08/14 04:23:01;;;;;;;;;;;18.40;84.90;;;;;;4988021;28;19937;-71
2023/08/14 04:25:29;;;;;;;;;;;18.40;84.90;;;;;;4980706;28;19944;-69
2023/08/14 04:27:57;;;;;;;;;;;18.40;84.80;;;;;;4979370;28;19934;-71
2023/08/14 04:30:24;;;;;;;;;;;18.40;84.80;;;;;;4988623;28;20008;-71
2023/08/14 04:32:53;;;;;;;;;;;18.40;84.80;;;;;;4990485;28;19933;-70
2023/08/14 04:35:21;;;;;;;;;;;18.40;84.90;;;;;;4988279;28;20385;-70
2023/08/14 04:37:51;;;;;;;;;;;18.40;84.90;;;;;;4986216;28;19934;-70
2023/08/14 04:40:18;;;;;;;;;;;18.40;84.90;;;;;;4989040;28;19934;-70
2023/08/14 04:42:46;;;;;;;;;;;18.40;84.70;;;;;;4991003;28;19934;-70
2023/08/14 04:45:13;;;;;;;;;;;18.50;84.50;;;;;;4987937;28;20008;-70
2023/08/14 04:47:41;;;;;;;;;;;18.50;84.40;;;;;;4990518;28;19933;-70
2023/08/14 04:50:11;;;;;;;;;;;18.50;84.30;;;;;;4976404;28;20354;-69
2023/08/14 04:52:38;;;;;;;;;;;18.50;84.10;;;;;;4977694;28;19926;-69
2023/08/14 04:55:07;;;;;;;;;;;18.50;84.20;;;;;;4976495;28;19934;-70
2023/08/14 04:57:35;;;;;;;;;;;18.50;84.20;;;;;;4977639;28;19969;-71
2023/08/14 05:00:07;;;;;;;;;;;18.60;84.10;;;;;;4976174;28;20340;-70
2023/08/14 05:02:37;;;;;;;;;;;18.60;84.00;;;;;;4992957;28;19926;-70
2023/08/14 05:05:12;;;;;;;;;;;18.60;83.90;;;;;;4992518;28;19937;-71
2023/08/14 05:07:54;;;;;;;;;;;18.60;84.00;;;;;;4975640;28;19949;-72
2023/08/14 05:10:38;;;;;;;;;;;18.60;84.00;;;;;;4989250;28;20448;-63
2023/08/14 05:13:12;;;;;;;;;;;18.60;83.80;;;;;;4989905;28;19937;-62
2023/08/14 05:15:48;;;;;;;;;;;18.70;83.70;;;;;;4985708;28;19930;-62
2023/08/14 05:18:25;;;;;;;;;;;18.80;83.40;;;;;;4969814;28;19955;-62
2023/08/14 05:21:03;;;;;;;;;;;18.90;83.30;;;;;;4977500;28;19929;-63
2023/08/14 05:23:53;;;;;;;;;;;18.90;83.30;;;;;;4983067;28;20012;-63
2023/08/14 05:26:31;;;;;;;;;;;19.00;83.10;;;;;;4988660;28;20032;-63
2023/08/14 05:29:14;;;;;;;;;;;19.00;82.70;;;;;;4989818;28;19930;-63
2023/08/14 05:31:50;;;;;;;;;;;19.00;83.40;;;;;;4977842;28;19973;-63
2023/08/14 05:34:32;;;;;;;;;;;19.00;83.20;;;;;;4987891;28;19941;-63
2023/08/14 05:37:07;;;;;;;;;;;19.00;83.20;;;;;;4990151;28;19937;-63
2023/08/14 05:39:47;;;;;;;;;;;19.10;83.00;;;;;;4989098;28;19953;-63
2023/08/14 05:42:27;;;;;;;;;;;19.20;83.20;;;;;;4988110;28;19972;-63
2023/08/14 05:45:05;;;;;;;;;;;19.30;83.30;;;;;;4986205;28;20393;-62
2023/08/14 05:47:42;;;;;;;;;;;19.30;83.00;;;;;;4983693;28;19940;-62
2023/08/14 05:50:20;;;;;;;;;;;19.30;82.90;;;;;;4981749;28;20410;-62
2023/08/14 05:52:59;;;;;;;;;;;19.30;83.10;;;;;;4987204;28;19936;-62
2023/08/14 05:55:40;;;;;;;;;;;19.30;83.00;;;;;;4983430;28;19929;-63
2023/08/14 05:58:15;;;;;;;;;;;19.30;83.30;;;;;;4987609;28;20025;-63
2023/08/14 06:00:50;;;;;;;;;;;19.20;83.60;;;;;;4986273;28;19932;-63
2023/08/14 06:03:26;;;;;;;;;;;19.30;83.00;;;;;;4981888;28;19948;-63
2023/08/14 06:06:04;;;;;;;;;;;19.20;83.40;;;;;;4983883;28;19961;-62
2023/08/14 06:08:41;;;;;;;;;;;19.30;83.50;;;;;;4984672;28;20595;-63
2023/08/14 06:11:23;;;;;;;;;;;19.30;83.50;;;;;;4986118;28;19940;-62
2023/08/14 06:14:07;;;;;;;;;;;19.40;83.50;;;;;;4985753;28;20392;-61
2023/08/14 06:16:40;;;;;;;;;;;19.50;83.00;;;;;;4981895;28;19932;-63
2023/08/14 06:19:15;;;;;;;;;;;19.60;83.50;;;;;;4982933;28;19925;-71
2023/08/14 06:21:54;;;;;;;;;;;19.60;83.50;;;;;;4984884;28;19937;-69
2023/08/14 06:24:31;;;;;;;;;;;19.70;83.20;;;;;;4971777;28;19929;-69
2023/08/14 06:27:12;;;;;;;;;;;19.80;83.10;;;;;;4985890;28;20433;-71
2023/08/14 06:29:49;;;;;;;;;;;19.80;83.10;;;;;;4986253;28;19977;-69
2023/08/14 06:32:19;;;;;;;;;;;19.80;83.60;;;;;;4984287;28;20362;-70
2023/08/14 06:34:47;;;;;;;;;;;20.10;83.10;;;;;;4988332;28;20024;-70
2023/08/14 06:37:14;;;;;;;;;;;20.30;83.10;;;;;;4987068;28;19930;-71
2023/08/14 06:39:41;;;;;;;;;;;20.50;82.80;;;;;;4985062;28;20025;-72
2023/08/14 06:42:10;;;;;;;;;;;20.70;82.30;;;;;;4981979;28;19930;-71
2023/08/14 06:44:42;;;;;;;;;;;20.80;81.80;;;;;;4985823;28;20013;-71
2023/08/14 06:47:09;;;;;;;;;;;21.00;82.00;;;;;;4984718;28;19925;-72
2023/08/14 06:49:37;;;;;;;;;;;21.00;81.80;;;;;;4997534;28;20279;-70
2023/08/14 06:52:05;;;;;;;;;;;21.10;81.50;;;;;;4986165;28;19961;-69
2023/08/14 06:54:32;;;;;;;;;;;21.20;81.40;;;;;;4986545;28;19936;-69
2023/08/14 06:57:01;;;;;;;;;;;21.30;81.00;;;;;;4986246;28;19940;-70
2023/08/14 06:59:31;;;;;;;;;;;21.50;80.60;;;;;;4982170;28;19949;-71
2023/08/14 07:01:58;;;;;;;;;;;21.80;79.60;;;;;;4985799;28;19957;-70
2023/08/14 07:04:26;;;;;;;;;;;22.00;79.40;;;;;;4984842;28;19929;-71
2023/08/14 07:06:53;;;;;;;;;;;22.10;79.30;;;;;;4985554;28;20538;-70
2023/08/14 07:09:21;;;;;;;;;;;22.30;78.60;;;;;;4986904;28;19930;-70
2023/08/14 07:11:48;;;;;;;;;;;22.50;78.50;;;;;;4988181;28;19926;-69
2023/08/14 07:14:15;;;;;;;;;;;22.60;79.00;;;;;;4982907;28;20017;-70
2023/08/14 07:16:44;;;;;;;;;;;22.60;78.60;;;;;;4986505;28;19933;-69
2023/08/14 07:19:11;;;;;;;;;;;22.60;79.10;;;;;;4988152;28;19930;-69
2023/08/14 07:21:39;;;;;;;;;;;22.60;79.50;;;;;;4987136;28;19930;-70
2023/08/14 07:24:06;;;;;;;;;;;22.60;79.20;;;;;;4989978;28;19976;-71
2023/08/14 07:26:33;;;;;;;;;;;22.70;79.20;;;;;;4988611;28;19929;-70
2023/08/14 07:29:00;;;;;;;;;;;22.80;79.00;;;;;;4990055;28;19937;-74
2023/08/14 07:31:28;;;;;;;;;;;22.90;78.80;;;;;;4982854;28;20419;-73
2023/08/14 07:33:57;;;;;;;;;;;23.10;78.70;;;;;;4984800;28;19936;-72
2023/08/14 07:36:24;;;;;;;;;;;23.20;78.20;;;;;;4983807;28;19988;-74
2023/08/14 07:38:53;;;;;;;;;;;23.30;77.60;;;;;;4989372;28;19926;-75
2023/08/14 07:41:20;;;;;;;;;;;23.50;77.10;;;;;;4989156;28;19938;-74
2023/08/14 07:43:48;;;;;;;;;;;23.50;77.20;;;;;;4988591;28;19930;-73
2023/08/14 07:46:17;;;;;;;;;;;23.70;76.90;;;;;;4989206;28;20423;-74
2023/08/14 07:48:45;;;;;;;;;;;23.80;76.60;;;;;;4985404;28;19929;-74
2023/08/14 07:51:14;;;;;;;;;;;23.90;76.70;;;;;;4986393;28;19934;-73
2023/08/14 07:53:41;;;;;;;;;;;23.90;76.90;;;;;;4989897;28;19954;-74
2023/08/14 07:56:08;;;;;;;;;;;23.90;76.60;;;;;;4988831;28;19984;-73
2023/08/14 07:58:36;;;;;;;;;;;23.80;76.70;;;;;;4988451;28;19940;-73
2023/08/14 08:01:04;;;;;;;;;;;23.80;76.80;;;;;;4987338;28;19934;-71
2023/08/14 08:03:32;;;;;;;;;;;24.00;76.90;;;;;;4982508;28;20382;-73
2023/08/14 08:06:00;;;;;;;;;;;24.20;76.60;;;;;;4982619;28;19933;-74
2023/08/14 08:08:28;;;;;;;;;;;24.50;75.80;;;;;;4987729;28;19937;-73
2023/08/14 08:10:56;;;;;;;;;;;24.50;76.50;;;;;;4985978;28;19940;-73
2023/08/14 08:13:24;;;;;;;;;;;24.60;76.00;;;;;;4988117;28;20020;-73
2023/08/14 08:15:51;;;;;;;;;;;24.70;76.30;;;;;;4988614;28;20025;-72
2023/08/14 08:18:18;;;;;;;;;;;24.80;75.90;;;;;;4989709;28;19984;-73
2023/08/14 08:20:46;;;;;;;;;;;24.90;75.80;;;;;;4985337;28;19952;-74
2023/08/14 08:23:13;;;;;;;;;;;25.00;75.20;;;;;;4987171;28;19930;-73
2023/08/14 08:25:42;;;;;;;;;;;25.10;74.90;;;;;;4987137;28;19930;-73
2023/08/14 08:28:10;;;;;;;;;;;25.30;74.40;;;;;;4990858;28;20025;-74
2023/08/14 08:30:38;;;;;;;;;;;25.50;73.90;;;;;;4986385;28;19930;-73
2023/08/14 08:33:05;;;;;;;;;;;25.60;73.80;;;;;;4985835;28;19926;-73
2023/08/14 08:35:33;;;;;;;;;;;25.70;74.00;;;;;;4988191;28;19930;-73
2023/08/14 08:38:00;;;;;;;;;;;25.80;72.90;;;;;;4988639;28;20040;-72
2023/08/14 08:40:28;;;;;;;;;;;25.80;74.10;;;;;;4985707;28;19961;-68
2023/08/14 08:42:58;;;;;;;;;;;26.10;73.30;;;;;;4988399;28;20564;-70
2023/08/14 08:45:31;;;;;;;;;;;26.10;73.00;;;;;;4985426;28;20399;-69
2023/08/14 08:48:00;;;;;;;;;;;26.10;73.10;;;;;;4988138;28;20305;-71
2023/08/14 08:50:29;;;;;;;;;;;26.00;73.10;;;;;;4984886;28;19936;-69
2023/08/14 08:52:56;;;;;;;;;;;25.90;74.00;;;;;;4989081;28;20046;-69
2023/08/14 08:55:24;;;;;;;;;;;25.80;73.40;;;;;;4986360;28;19952;-69
2023/08/14 08:57:53;;;;;;;;;;;25.70;74.30;;;;;;4986900;28;19937;-69
2023/08/14 09:00:23;;;;;;;;;;;25.60;74.90;;;;;;4984534;28;19930;-68
2023/08/14 09:02:50;;;;;;;;;;;25.70;74.50;;;;;;4986268;28;19952;-69
2023/08/14 09:05:18;;;;;;;;;;;25.70;75.20;;;;;;4985902;28;19930;-69
2023/08/14 09:07:45;;;;;;;;;;;25.70;74.90;;;;;;4989063;28;19930;-70
2023/08/14 09:10:12;;;;;;;;;;;25.80;74.80;;;;;;4989279;28;19957;-70
2023/08/14 09:12:40;;;;;;;;;;;25.80;74.20;;;;;;4983058;28;19937;-69
2023/08/14 09:15:09;;;;;;;;;;;25.80;73.80;;;;;;4985059;28;19926;-69
2023/08/14 09:17:38;;;;;;;;;;;26.00;73.70;;;;;;4983852;28;20059;-70
2023/08/14 09:20:08;;;;;;;;;;;26.00;72.40;;;;;;4987085;28;19933;-70
2023/08/14 09:22:38;;;;;;;;;;;26.00;73.30;;;;;;4982732;28;20398;-69
2023/08/14 09:25:08;;;;;;;;;;;26.10;72.90;;;;;;4985391;28;19932;-68
2023/08/14 09:27:36;;;;;;;;;;;26.00;72.50;;;;;;4984918;28;19932;-70
2023/08/14 09:30:06;;;;;;;;;;;26.00;73.10;;;;;;4983321;28;19965;-69
2023/08/14 09:32:33;;;;;;;;;;;26.00;73.10;;;;;;4983911;28;20328;-69
2023/08/14 09:35:03;;;;;;;;;;;26.10;73.30;;;;;;4986109;28;19933;-70
2023/08/14 09:37:32;;;;;;;;;;;26.00;73.30;;;;;;4988503;28;20030;-69
2023/08/14 09:40:12;;;;;;;;;;;26.00;73.80;;;;;;4984315;28;19936;-69
2023/08/14 09:42:40;;;;;;;;;;;26.00;72.80;;;;;;4985857;28;19930;-70
2023/08/14 09:45:08;;;;;;;;;;;26.00;72.70;;;;;;4982817;28;19997;-69
2023/08/14 09:47:36;;;;;;;;;;;26.00;72.60;;;;;;4983601;28;19926;-69
2023/08/14 09:50:06;;;;;;;;;;;26.00;72.80;;;;;;4988071;28;20012;-69
2023/08/14 09:52:34;;;;;;;;;;;26.00;73.10;;;;;;4983216;28;20345;-70
2023/08/14 09:55:02;;;;;;;;;;;25.90;73.30;;;;;;4985987;28;19930;-68
2023/08/14 09:57:29;;;;;;;;;;;26.00;73.80;;;;;;4986061;28;19933;-70
2023/08/14 09:59:56;;;;;;;;;;;26.10;74.50;;;;;;4981747;28;19933;-70
2023/08/14 10:02:24;;;;;;;;;;;26.20;74.90;;;;;;4981627;28;19976;-70
2023/08/14 10:04:52;;;;;;;;;;;26.20;73.60;;;;;;4987395;28;19991;-70
2023/08/14 10:07:21;;;;;;;;;;;26.30;74.50;;;;;;4987709;28;19926;-69
2023/08/14 10:09:51;;;;;;;;;;;26.40;73.00;;;;;;4985352;28;19929;-70
2023/08/14 10:12:19;;;;;;;;;;;26.50;72.60;;;;;;4983889;28;20433;-71
2023/08/14 10:14:49;;;;;;;;;;;26.60;73.90;;;;;;4984887;28;20317;-70
2023/08/14 10:17:20;;;;;;;;;;;26.70;73.30;;;;;;4987105;28;19937;-70
2023/08/14 10:19:49;;;;;;;;;;;26.90;73.80;;;;;;4987068;28;19930;-69
2023/08/14 10:22:18;;;;;;;;;;;27.00;73.10;;;;;;4985873;28;19937;-70
2023/08/14 10:24:47;;;;;;;;;;;27.10;72.90;;;;;;4987485;28;19933;-70
2023/08/14 10:27:15;;;;;;;;;;;27.30;72.90;;;;;;4984274;28;20384;-70
2023/08/14 10:29:43;;;;;;;;;;;27.50;72.60;;;;;;4988583;28;20825;-71
2023/08/14 10:32:11;;;;;;;;;;;27.60;72.00;;;;;;4985191;28;20393;-70
2023/08/14 10:34:39;;;;;;;;;;;27.70;71.60;;;;;;4985262;28;20309;-70
2023/08/14 10:37:06;;;;;;;;;;;27.80;71.50;;;;;;4985698;28;19961;-70
2023/08/14 10:39:35;;;;;;;;;;;28.10;70.60;;;;;;4985427;28;19929;-70
2023/08/14 10:42:05;;;;;;;;;;;28.20;69.60;;;;;;4983866;28;19940;-70
2023/08/14 10:44:35;;;;;;;;;;;28.30;69.70;;;;;;4988027;28;20297;-70
2023/08/14 10:47:06;;;;;;;;;;;28.30;69.40;;;;;;4989857;28;20428;-69
2023/08/14 10:49:46;;;;;;;;;;;28.50;68.50;;;;;;4990729;28;19951;-70
2023/08/14 10:52:14;;;;;;;;;;;28.30;68.00;;;;;;4989501;28;19952;-69
2023/08/14 10:54:44;;;;;;;;;;;28.30;68.30;;;;;;4989364;28;19976;-71
2023/08/14 10:57:13;;;;;;;;;;;28.40;68.30;;;;;;4989906;28;19926;-68
2023/08/14 10:59:42;;;;;;;;;;;28.50;68.20;;;;;;4986986;28;19930;-69
2023/08/14 11:02:16;;;;;;;;;;;28.40;67.50;;;;;;4985963;28;19933;-72
2023/08/14 11:04:58;;;;;;;;;;;28.50;67.30;;;;;;4990651;28;19936;-71
2023/08/14 11:07:29;;;;;;;;;;;28.60;67.60;;;;;;4989932;28;20426;-71
2023/08/14 11:09:56;;;;;;;;;;;28.60;67.30;;;;;;4989378;28;19925;-69
2023/08/14 11:12:26;;;;;;;;;;;28.60;67.20;;;;;;4990329;28;19926;-67
2023/08/14 11:14:54;;;;;;;;;;;28.70;67.10;;;;;;4988663;28;19937;-69
2023/08/14 11:17:26;;;;;;;;;;;28.70;68.00;;;;;;4988760;28;19951;-67
2023/08/14 11:19:54;;;;;;;;;;;28.80;67.30;;;;;;4988207;28;19926;-69
2023/08/14 11:22:22;;;;;;;;;;;28.80;67.20;;;;;;4985705;28;19975;-70
2023/08/14 11:24:50;;;;;;;;;;;28.80;67.40;;;;;;4989058;28;19934;-69
2023/08/14 11:27:17;;;;;;;;;;;28.70;67.50;;;;;;4985858;28;20403;-69
2023/08/14 11:29:48;;;;;;;;;;;28.70;68.10;;;;;;4990328;28;19942;-69
2023/08/14 11:32:15;;;;;;;;;;;28.60;67.20;;;;;;4986735;28;19926;-69
2023/08/14 11:34:43;;;;;;;;;;;28.60;66.90;;;;;;4988905;28;19930;-68
2023/08/14 11:37:11;;;;;;;;;;;28.70;66.80;;;;;;4984378;28;19933;-69
2023/08/14 11:39:38;;;;;;;;;;;28.80;66.70;;;;;;4987536;28;19930;-68
2023/08/14 11:42:07;;;;;;;;;;;28.80;68.10;;;;;;4990467;28;19949;-69
2023/08/14 11:44:34;;;;;;;;;;;28.70;67.60;;;;;;4988310;28;19930;-68
2023/08/14 11:47:04;;;;;;;;;;;28.60;68.50;;;;;;4988642;28;19936;-69
2023/08/14 11:49:32;;;;;;;;;;;28.60;67.50;;;;;;4990632;28;19933;-69
2023/08/14 11:52:02;;;;;;;;;;;28.60;68.80;;;;;;4988379;28;19934;-69
2023/08/14 11:54:30;;;;;;;;;;;28.80;67.60;;;;;;4986452;28;19933;-68
2023/08/14 11:57:01;;;;;;;;;;;28.80;67.60;;;;;;4983630;28;19952;-69
2023/08/14 11:59:29;;;;;;;;;;;28.80;67.10;;;;;;4984236;28;20328;-69
2023/08/14 12:01:57;;;;;;;;;;;28.70;67.40;;;;;;4988502;28;19934;-70
2023/08/14 12:04:26;;;;;;;;;;;28.90;66.90;;;;;;4991486;28;20278;-68
2023/08/14 12:06:55;;;;;;;;;;;28.70;66.90;;;;;;4990725;28;19925;-70
2023/08/14 12:09:26;;;;;;;;;;;28.60;67.30;;;;;;4988765;28;19941;-68
2023/08/14 12:11:54;;;;;;;;;;;28.60;67.20;;;;;;4986098;28;19925;-69
2023/08/14 12:14:21;;;;;;;;;;;28.60;66.90;;;;;;4990816;28;19980;-68
2023/08/14 12:16:49;;;;;;;;;;;28.60;66.90;;;;;;4991347;28;19930;-70
2023/08/14 12:19:20;;;;;;;;;;;28.60;67.30;;;;;;4990738;28;20372;-67
2023/08/14 12:21:59;;;;;;;;;;;28.60;68.20;;;;;;4990425;28;20024;-69
2023/08/14 12:24:26;;;;;;;;;;;28.70;67.50;;;;;;4988116;28;19936;-66
2023/08/14 12:26:54;;;;;;;;;;;28.60;67.50;;;;;;4989786;28;19941;-67
2023/08/14 12:29:21;;;;;;;;;;;28.50;67.00;;;;;;4990736;28;19932;-66
2023/08/14 12:31:49;;;;;;;;;;;28.40;67.20;;;;;;4990039;28;19930;-66
2023/08/14 12:34:18;;;;;;;;;;;28.30;67.20;;;;;;4988276;28;19932;-66
2023/08/14 12:36:45;;;;;;;;;;;28.30;67.50;;;;;;4980215;28;19926;-66
2023/08/14 12:39:14;;;;;;;;;;;28.30;67.40;;;;;;4988827;28;19926;-68
2023/08/14 12:41:41;;;;;;;;;;;28.40;67.30;;;;;;4985521;28;19936;-68
2023/08/14 12:44:09;;;;;;;;;;;28.30;67.20;;;;;;4989405;28;20289;-67
2023/08/14 12:46:37;;;;;;;;;;;28.30;67.50;;;;;;4982646;28;19926;-66
2023/08/14 12:49:04;;;;;;;;;;;28.30;67.20;;;;;;4982913;28;19926;-68
2023/08/14 12:51:33;;;;;;;;;;;28.50;67.00;;;;;;4981157;28;20396;-66
2023/08/14 12:54:01;;;;;;;;;;;28.50;66.50;;;;;;4986258;28;19945;-68
2023/08/14 12:56:31;;;;;;;;;;;28.40;66.80;;;;;;4986028;28;19929;-66
2023/08/14 12:58:58;;;;;;;;;;;28.50;67.30;;;;;;4977875;28;19933;-66
2023/08/14 13:01:26;;;;;;;;;;;28.60;66.50;;;;;;4982520;28;19934;-65
2023/08/14 13:03:54;;;;;;;;;;;28.50;65.90;;;;;;4984305;28;19954;-68
2023/08/14 13:06:21;;;;;;;;;;;28.40;67.10;;;;;;4986191;28;19961;-66
2023/08/14 13:08:50;;;;;;;;;;;28.40;67.10;;;;;;4980821;28;19984;-66
2023/08/14 13:11:18;;;;;;;;;;;28.40;67.20;;;;;;4986330;28;19937;-66
2023/08/14 13:13:46;;;;;;;;;;;28.30;66.90;;;;;;4984467;28;19938;-65
2023/08/14 13:16:14;;;;;;;;;;;28.20;67.50;;;;;;4980244;28;19929;-67
2023/08/14 13:18:42;;;;;;;;;;;28.10;67.10;;;;;;4983801;28;20000;-68
2023/08/14 13:21:09;;;;;;;;;;;28.20;67.10;;;;;;4987136;28;20027;-67
2023/08/14 13:23:36;;;;;;;;;;;28.30;66.60;;;;;;4985203;28;19929;-66
2023/08/14 13:26:04;;;;;;;;;;;28.50;67.40;;;;;;4985223;28;20022;-67
2023/08/14 13:28:35;;;;;;;;;;;28.40;66.90;;;;;;4985135;28;20389;-68
2023/08/14 13:31:11;;;;;;;;;;;28.30;67.10;;;;;;4985951;28;20423;-66
2023/08/14 13:33:39;;;;;;;;;;;28.20;67.20;;;;;;4982060;28;19936;-66
2023/08/14 13:36:06;;;;;;;;;;;28.10;67.10;;;;;;4982850;28;19995;-67
2023/08/14 13:38:34;;;;;;;;;;;28.10;67.30;;;;;;4989667;28;19926;-67
2023/08/14 13:41:02;;;;;;;;;;;28.20;67.50;;;;;;4986511;28;19925;-67
2023/08/14 13:43:30;;;;;;;;;;;28.30;66.80;;;;;;4963130;28;19930;-67
2023/08/14 13:45:58;;;;;;;;;;;28.30;67.30;;;;;;4982861;28;20021;-66
2023/08/14 13:48:28;;;;;;;;;;;28.30;67.30;;;;;;4980452;28;19926;-67
2023/08/14 13:50:55;;;;;;;;;;;28.30;67.30;;;;;;4985288;28;20377;-68
2023/08/14 13:53:23;;;;;;;;;;;28.50;66.70;;;;;;4983622;28;19948;-69
2023/08/14 13:55:52;;;;;;;;;;;28.50;66.30;;;;;;4987225;28;19929;-67
2023/08/14 13:58:20;;;;;;;;;;;28.40;66.90;;;;;;4981075;28;20401;-66
2023/08/14 14:00:47;;;;;;;;;;;28.20;66.80;;;;;;4978817;28;20373;-67
2023/08/14 14:03:15;;;;;;;;;;;28.10;66.70;;;;;;4981478;28;19948;-68
2023/08/14 14:05:44;;;;;;;;;;;28.30;66.30;;;;;;4985528;28;19965;-68
2023/08/14 14:08:12;;;;;;;;;;;28.20;66.10;;;;;;4986299;28;20581;-67
2023/08/14 14:10:40;;;;;;;;;;;28.30;66.20;;;;;;4986526;28;19934;-67
2023/08/14 14:13:07;;;;;;;;;;;28.20;66.40;;;;;;4988205;28;19936;-68
2023/08/14 14:15:42;;;;;;;;;;;28.10;66.90;;;;;;4984738;28;20509;-67
2023/08/14 14:18:10;;;;;;;;;;;28.10;66.40;;;;;;4988594;28;20424;-66
2023/08/14 14:20:38;;;;;;;;;;;28.00;67.30;;;;;;4988633;28;20327;-67
2023/08/14 14:23:08;;;;;;;;;;;27.80;66.80;;;;;;4983260;28;19937;-68
2023/08/14 14:25:36;;;;;;;;;;;27.80;66.90;;;;;;4986752;28;19930;-68
2023/08/14 14:28:04;;;;;;;;;;;27.70;67.70;;;;;;4988057;28;19930;-66